Time;durP1;ratioP1;P1;durP2;ratioP2;P2;SDS_P1;SDS_P2;PMS_P1;PMS_P2;Temp;Humidity;BMP_temperature;BMP_pressure;BME280_temperature;BME280_humidity;BME280_pressure;Samples;Min_cycle;Max_cycle;Signal;HPM_P1;HPM_P2
2024/02/19 00:00:24;;;;;;;;;;;;;;;17.06;42.87;102016.59;4957298;29;1066;-49
2024/02/19 00:02:50;;;;;;;;;;;;;;;16.73;42.88;102013.84;4957025;29;1149;-45
2024/02/19 00:05:16;;;;;;;;;;;;;;;16.04;43.96;102027.13;4957554;29;1134;-44
2024/02/19 00:07:41;;;;;;;;;;;;;;;16.57;43.59;102026.25;4957995;29;1977;-47
2024/02/19 00:10:07;;;;;;;;;;;;;;;16.81;42.52;102020.56;4958015;29;1029;-46
2024/02/19 00:12:33;;;;;;;;;;;;;;;15.88;44.34;102025.22;4956255;29;1065;-46
2024/02/19 00:14:58;;;;;;;;;;;;;;;15.64;44.67;102017.53;4949956;29;1150;-45
2024/02/19 00:17:24;;;;;;;;;;;;;;;17.00;43.01;102012.44;4957745;29;1066;-48
2024/02/19 00:19:49;;;;;;;;;;;;;;;16.34;43.62;102021.22;4958409;28;1129;-46
2024/02/19 00:22:15;;;;;;;;;;;;;;;16.67;43.68;102019.50;4961635;28;1150;-46
2024/02/19 00:24:41;;;;;;;;;;;;;;;17.92;40.32;102022.47;4959818;29;1096;-45
2024/02/19 00:27:07;;;;;;;;;;;;;;;16.25;44.00;102019.88;4959003;29;1038;-45
2024/02/19 00:29:32;;;;;;;;;;;;;;;15.90;44.18;102020.69;4961039;29;1906;-46
2024/02/19 00:31:58;;;;;;;;;;;;;;;16.00;44.58;102009.63;4961407;29;1114;-47
2024/02/19 00:34:24;;;;;;;;;;;;;;;18.19;40.12;102012.03;4961053;29;1082;-45
2024/02/19 00:36:50;;;;;;;;;;;;;;;16.51;43.17;102009.72;4958611;29;1160;-48
2024/02/19 00:39:16;;;;;;;;;;;;;;;15.97;43.98;102015.94;4952944;29;1154;-47
2024/02/19 00:41:41;;;;;;;;;;;;;;;15.77;44.19;102012.47;4960944;29;1010;-48
2024/02/19 00:44:07;;;;;;;;;;;;;;;15.61;44.36;102011.50;4960860;29;1145;-45
2024/02/19 00:46:32;;;;;;;;;;;;;;;17.29;42.38;101999.38;4960820;29;1142;-48
2024/02/19 00:48:58;;;;;;;;;;;;;;;16.32;43.75;101993.88;4958565;29;1920;-43
2024/02/19 00:51:24;;;;;;;;;;;;;;;15.81;44.58;102001.72;4958528;29;1022;-48
2024/02/19 00:53:49;;;;;;;;;;;;;;;16.92;43.04;101994.28;4960969;29;1188;-48
2024/02/19 00:56:15;;;;;;;;;;;;;;;16.30;43.82;101995.72;4947873;29;1091;-45
2024/02/19 00:58:40;;;;;;;;;;;;;;;15.78;44.86;101994.78;4960453;29;1169;-46
2024/02/19 01:01:06;;;;;;;;;;;;;;;17.50;41.39;101988.47;4958058;29;1054;-48
2024/02/19 01:03:31;;;;;;;;;;;;;;;16.05;44.26;101988.19;4952079;29;1089;-44
2024/02/19 01:05:57;;;;;;;;;;;;;;;15.71;44.63;101990.69;4960461;29;1108;-45
2024/02/19 01:08:23;;;;;;;;;;;;;;;17.36;41.70;101989.25;4960354;29;1910;-48
2024/02/19 01:10:49;;;;;;;;;;;;;;;15.98;44.26;101985.81;4960624;29;1173;-47
2024/02/19 01:13:15;;;;;;;;;;;;;;;15.70;44.71;101983.69;4949645;29;1196;-47
2024/02/19 01:15:41;;;;;;;;;;;;;;;17.81;40.88;101992.03;4958757;29;1057;-45
2024/02/19 01:18:06;;;;;;;;;;;;;;;16.29;43.84;101972.78;4960049;29;1237;-44
2024/02/19 01:20:32;;;;;;;;;;;;;;;17.67;41.41;101976.00;4960100;29;1146;-45
2024/02/19 01:22:58;;;;;;;;;;;;;;;17.45;41.12;101974.59;4960554;29;1081;-46
2024/02/19 01:25:24;;;;;;;;;;;;;;;16.32;43.68;101977.06;4959500;29;999;-45
2024/02/19 01:27:50;;;;;;;;;;;;;;;15.88;44.06;101972.13;4959635;29;1930;-46
2024/02/19 01:30:15;;;;;;;;;;;;;;;18.09;40.24;101973.56;4960217;29;1228;-46
2024/02/19 01:32:41;;;;;;;;;;;;;;;16.73;42.85;101962.53;4958914;28;1088;-49
2024/02/19 01:35:08;;;;;;;;;;;;;;;16.11;43.72;101961.31;4960111;29;1042;-47
2024/02/19 01:37:34;;;;;;;;;;;;;;;15.76;44.13;101956.84;4956174;29;1126;-45
2024/02/19 01:40:00;;;;;;;;;;;;;;;15.57;44.41;101963.06;4957918;29;999;-44
2024/02/19 01:42:25;;;;;;;;;;;;;;;17.34;42.06;101960.09;4960021;28;1089;-48
2024/02/19 01:44:51;;;;;;;;;;;;;;;16.09;44.08;101953.44;4959859;29;1221;-48
2024/02/19 01:47:17;;;;;;;;;;;;;;;15.72;44.37;101957.91;4959918;29;1181;-48
2024/02/19 01:49:44;;;;;;;;;;;;;;;15.57;44.48;101954.22;4957973;29;1906;-46
2024/02/19 01:52:09;;;;;;;;;;;;;;;17.35;41.98;101950.31;4959983;29;1093;-48
2024/02/19 01:54:35;;;;;;;;;;;;;;;15.92;44.65;101941.00;4958878;29;1111;-46
2024/02/19 01:57:00;;;;;;;;;;;;;;;16.28;44.24;101937.41;4950446;29;1193;-43
2024/02/19 01:59:26;;;;;;;;;;;;;;;17.30;41.52;101941.75;4942599;29;1162;-49
2024/02/19 02:01:53;;;;;;;;;;;;;;;15.94;44.23;101943.56;4937652;29;1130;-48
2024/02/19 02:04:18;;;;;;;;;;;;;;;16.84;43.15;101946.88;4940384;29;1154;-50
2024/02/19 02:06:44;;;;;;;;;;;;;;;16.83;42.54;101949.59;4942503;29;1093;-44
2024/02/19 02:09:10;;;;;;;;;;;;;;;15.97;44.44;101956.69;4957782;29;1906;-50
2024/02/19 02:11:35;;;;;;;;;;;;;;;16.65;43.46;101958.47;4942336;29;1122;-46
2024/02/19 02:14:01;;;;;;;;;;;;;;;16.53;43.27;101959.16;4957568;29;1061;-47
2024/02/19 02:16:26;;;;;;;;;;;;;;;16.71;43.48;101951.13;4959442;29;1205;-46
2024/02/19 02:18:52;;;;;;;;;;;;;;;18.44;39.22;101953.75;4959003;29;1153;-49
2024/02/19 02:21:18;;;;;;;;;;;;;;;16.61;43.00;101954.28;4958992;29;1150;-47
2024/02/19 02:23:44;;;;;;;;;;;;;;;16.10;43.73;101955.16;4958948;29;1121;-45
2024/02/19 02:26:09;;;;;;;;;;;;;;;15.79;43.88;101960.22;4953067;29;1038;-46
2024/02/19 02:28:35;;;;;;;;;;;;;;;17.69;41.31;101953.69;4956358;29;1906;-49
2024/02/19 02:31:01;;;;;;;;;;;;;;;16.47;43.09;101959.47;4958978;29;1167;-48
2024/02/19 02:33:26;;;;;;;;;;;;;;;15.96;43.92;101965.59;4955152;29;1168;-44
2024/02/19 02:35:52;;;;;;;;;;;;;;;15.71;44.29;101966.81;4950472;29;1205;-48
2024/02/19 02:38:18;;;;;;;;;;;;;;;15.57;44.11;101956.88;4958739;29;1041;-47
2024/02/19 02:40:43;;;;;;;;;;;;;;;17.41;41.74;101955.28;4958427;29;1053;-48
2024/02/19 02:43:09;;;;;;;;;;;;;;;16.03;44.15;101953.75;4958950;28;1050;-43
2024/02/19 02:45:35;;;;;;;;;;;;;;;16.94;42.91;101956.97;4958724;28;1145;-45
2024/02/19 02:48:00;;;;;;;;;;;;;;;16.96;42.32;101953.31;4958818;29;1915;-47
2024/02/19 02:50:26;;;;;;;;;;;;;;;15.99;44.33;101965.47;4958190;29;1101;-50
2024/02/19 02:52:51;;;;;;;;;;;;;;;18.23;39.92;101965.63;4955627;29;1217;-48
2024/02/19 02:55:17;;;;;;;;;;;;;;;16.55;43.11;101967.88;4958436;29;1066;-47
2024/02/19 02:57:43;;;;;;;;;;;;;;;16.02;43.91;101960.00;4958653;29;1137;-45
2024/02/19 03:00:09;;;;;;;;;;;;;;;15.76;44.31;101970.97;4958931;29;1173;-46
2024/02/19 03:02:34;;;;;;;;;;;;;;;16.71;43.41;101967.06;4953955;29;1082;-48
2024/02/19 03:05:00;;;;;;;;;;;;;;;16.50;43.43;101967.25;4958511;29;1293;-45
2024/02/19 03:07:25;;;;;;;;;;;;;;;15.78;44.58;101961.13;4958300;29;1050;-48
2024/02/19 03:09:52;;;;;;;;;;;;;;;17.16;42.42;101964.66;4958461;29;1987;-46
2024/02/19 03:12:18;;;;;;;;;;;;;;;16.06;44.24;101961.56;4958098;29;1248;-48
2024/02/19 03:14:44;;;;;;;;;;;;;;;16.34;44.25;101954.81;4951226;29;1181;-47
2024/02/19 03:17:10;;;;;;;;;;;;;;;17.47;41.16;101956.72;4955029;29;1020;-46
2024/02/19 03:19:35;;;;;;;;;;;;;;;16.13;43.73;101952.31;4958456;29;1077;-47
2024/02/19 03:22:04;;;;;;;;;;;;;;;15.77;44.17;101953.25;4958183;29;1045;-49
2024/02/19 03:24:30;;;;;;;;;;;;;;;17.90;40.76;101961.34;4958280;29;1149;-50
2024/02/19 03:26:58;;;;;;;;;;;;;;;16.23;43.58;101960.66;4953166;29;1395;-47
2024/02/19 03:29:23;;;;;;;;;;;;;;;15.89;44.37;101957.06;4958466;29;1919;-47
2024/02/19 03:31:49;;;;;;;;;;;;;;;15.65;43.99;101955.56;4957592;29;1073;-44
2024/02/19 03:34:15;;;;;;;;;;;;;;;16.45;43.94;101954.22;4958433;29;1058;-47
2024/02/19 03:36:48;;;;;;;;;;;;;;;16.65;42.65;101945.19;4955232;29;1129;-47
2024/02/19 03:39:14;;;;;;;;;;;;;;;17.49;41.64;101945.06;4940015;29;1121;-44
2024/02/19 03:41:39;;;;;;;;;;;;;;;18.82;38.61;101953.16;4955695;29;1058;-46
2024/02/19 03:44:05;;;;;;;;;;;;;;;16.80;42.42;101939.97;4957964;29;1129;-44
2024/02/19 03:46:30;;;;;;;;;;;;;;;16.21;43.39;101944.00;4958211;29;1159;-47
2024/02/19 03:48:56;;;;;;;;;;;;;;;16.01;43.59;101943.22;4957834;29;1989;-45
2024/02/19 03:51:21;;;;;;;;;;;;;;;17.24;42.37;101935.81;4957414;29;1109;-46
2024/02/19 03:53:47;;;;;;;;;;;;;;;16.47;43.07;101941.75;4957474;28;1075;-44
2024/02/19 03:56:13;;;;;;;;;;;;;;;15.91;44.09;101932.16;4960551;29;1077;-46
2024/02/19 03:58:38;;;;;;;;;;;;;;;15.69;44.88;101935.06;4961771;29;1126;-45
2024/02/19 04:01:04;;;;;;;;;;;;;;;17.87;40.53;101937.56;4961529;29;1168;-48
2024/02/19 04:03:29;;;;;;;;;;;;;;;16.29;43.36;101930.28;4961358;28;1023;-48
2024/02/19 04:05:55;;;;;;;;;;;;;;;17.11;42.57;101934.81;4961548;29;1046;-49
2024/02/19 04:08:20;;;;;;;;;;;;;;;17.05;41.95;101927.97;4961284;29;1910;-44
2024/02/19 04:10:47;;;;;;;;;;;;;;;15.99;44.36;101933.59;4961756;29;1049;-48
2024/02/19 04:13:12;;;;;;;;;;;;;;;15.74;44.23;101943.66;4961199;29;1078;-43
2024/02/19 04:15:38;;;;;;;;;;;;;;;15.70;44.57;101946.53;4954879;29;1085;-44
2024/02/19 04:18:03;;;;;;;;;;;;;;;17.73;40.79;101954.38;4961861;29;1069;-49
2024/02/19 04:20:30;;;;;;;;;;;;;;;16.14;43.98;101947.88;4961374;29;1076;-45
2024/02/19 04:22:55;;;;;;;;;;;;;;;15.69;44.63;101950.97;4960820;29;1232;-47
2024/02/19 04:25:21;;;;;;;;;;;;;;;15.60;44.15;101952.28;4960542;29;1118;-48
2024/02/19 04:27:46;;;;;;;;;;;;;;;17.42;41.89;101946.34;4960880;29;1903;-50
2024/02/19 04:30:12;;;;;;;;;;;;;;;16.51;42.87;101945.97;4961271;29;1077;-48
2024/02/19 04:32:37;;;;;;;;;;;;;;;15.82;44.52;101948.56;4960933;29;1097;-46
2024/02/19 04:35:03;;;;;;;;;;;;;;;16.05;44.65;101948.38;4960679;29;1086;-45
2024/02/19 04:37:30;;;;;;;;;;;;;;;16.99;42.12;101960.25;4960831;29;1054;-49
2024/02/19 04:39:55;;;;;;;;;;;;;;;15.88;44.20;101960.69;4952375;29;1152;-48
2024/02/19 04:42:21;;;;;;;;;;;;;;;16.32;44.27;101963.78;4961228;29;1018;-45
2024/02/19 04:44:47;;;;;;;;;;;;;;;17.62;40.67;101968.28;4960363;29;1413;-45
2024/02/19 04:47:13;;;;;;;;;;;;;;;16.07;43.89;101959.75;4960797;29;1136;-47
2024/02/19 04:49:39;;;;;;;;;;;;;;;16.13;44.38;101954.97;4960445;29;1906;-45
2024/02/19 04:52:04;;;;;;;;;;;;;;;17.08;41.99;101962.38;4959593;29;2220;-53
2024/02/19 04:54:30;;;;;;;;;;;;;;;16.03;43.76;101957.25;4959598;29;1944;-56
2024/02/19 04:56:55;;;;;;;;;;;;;;;15.64;44.46;101966.25;4952757;29;1919;-47
2024/02/19 04:59:21;;;;;;;;;;;;;;;17.30;41.88;101955.03;4959582;29;1919;-52
2024/02/19 05:01:47;;;;;;;;;;;;;;;16.64;42.25;101970.06;4960529;29;1842;-57
2024/02/19 05:04:13;;;;;;;;;;;;;;;15.96;43.32;101966.47;4958946;29;1840;-46
2024/02/19 05:06:38;;;;;;;;;;;;;;;15.87;43.94;101969.56;4957813;29;892;-48
2024/02/19 05:09:04;;;;;;;;;;;;;;;17.89;39.93;101964.09;4958522;28;1914;-49
2024/02/19 05:11:30;;;;;;;;;;;;;;;16.34;42.98;101965.44;4951552;29;1154;-47
2024/02/19 05:13:55;;;;;;;;;;;;;;;15.94;44.18;101968.31;4956840;29;1031;-49
2024/02/19 05:16:21;;;;;;;;;;;;;;;17.40;40.82;101966.84;4960208;29;872;-51
2024/02/19 05:18:46;;;;;;;;;;;;;;;17.01;41.57;101975.19;4960409;29;1042;-50
2024/02/19 05:21:13;;;;;;;;;;;;;;;16.78;41.87;101968.47;4959818;29;1095;-53
2024/02/19 05:23:39;;;;;;;;;;;;;;;16.52;42.51;101968.91;4960164;29;1057;-55
2024/02/19 05:26:05;;;;;;;;;;;;;;;16.29;42.96;101978.09;4960201;29;1070;-55
2024/02/19 05:28:34;;;;;;;;;;;;;;;16.12;43.42;101965.69;4956815;29;1989;-56
2024/02/19 05:31:01;;;;;;;;;;;;;;;15.98;43.65;101969.03;4959799;29;1119;-48
2024/02/19 05:33:28;;;;;;;;;;;;;;;15.75;44.15;101969.25;4947960;29;1525;-50
2024/02/19 05:35:53;;;;;;;;;;;;;;;15.69;44.26;101966.03;4948007;29;2666;-50
2024/02/19 05:38:19;;;;;;;;;;;;;;;15.59;44.55;101979.75;4956675;29;1069;-49
2024/02/19 05:40:44;;;;;;;;;;;;;;;15.49;44.52;101982.00;4958796;29;1312;-45
2024/02/19 05:43:10;;;;;;;;;;;;;;;15.38;45.00;101976.38;4955890;29;1474;-49
2024/02/19 05:45:36;;;;;;;;;;;;;;;15.21;45.00;101974.50;4956678;29;1338;-48
2024/02/19 05:48:01;;;;;;;;;;;;;;;15.12;45.48;101978.44;4956061;29;1989;-48
2024/02/19 05:50:29;;;;;;;;;;;;;;;16.19;43.27;101976.84;4952613;29;1086;-48
2024/02/19 05:52:54;;;;;;;;;;;;;;;17.24;40.95;101985.50;4955525;29;1130;-51
2024/02/19 05:55:20;;;;;;;;;;;;;;;16.35;42.52;101991.03;4959062;29;1181;-50
2024/02/19 05:57:45;;;;;;;;;;;;;;;15.85;43.54;101980.25;4959179;29;1054;-50
2024/02/19 06:00:13;;;;;;;;;;;;;;;15.66;44.03;101990.94;4946386;29;1094;-49
2024/02/19 06:02:42;;;;;;;;;;;;;;;15.46;44.74;101994.56;4959331;29;1104;-48
2024/02/19 06:05:08;;;;;;;;;;;;;;;15.25;44.86;101998.16;4946486;29;1963;-49
2024/02/19 06:07:33;;;;;;;;;;;;;;;15.96;43.87;101990.34;4959167;29;1013;-49
2024/02/19 06:09:59;;;;;;;;;;;;;;;17.24;40.81;101990.81;4956193;29;1914;-47
2024/02/19 06:12:25;;;;;;;;;;;;;;;16.55;42.07;101981.16;4949739;29;1133;-51
2024/02/19 06:14:50;;;;;;;;;;;;;;;16.00;43.35;101988.41;4958906;29;1081;-45
2024/02/19 06:17:16;;;;;;;;;;;;;;;15.66;44.20;101990.94;4957582;28;1318;-50
2024/02/19 06:19:42;;;;;;;;;;;;;;;15.47;44.42;101988.31;4957906;29;1056;-47
2024/02/19 06:22:08;;;;;;;;;;;;;;;15.31;45.04;101997.00;4935569;29;1545;-52
2024/02/19 06:24:33;;;;;;;;;;;;;;;15.40;44.71;101993.03;4952563;29;998;-48
2024/02/19 06:26:59;;;;;;;;;;;;;;;16.89;41.57;101983.81;4959116;29;946;-49
2024/02/19 06:29:24;;;;;;;;;;;;;;;16.96;41.18;101985.19;4958651;29;1914;-48
2024/02/19 06:31:52;;;;;;;;;;;;;;;16.15;42.68;101984.97;4958853;29;1109;-51
2024/02/19 06:34:17;;;;;;;;;;;;;;;15.81;43.35;101988.44;4958685;29;2404;-48
2024/02/19 06:36:43;;;;;;;;;;;;;;;15.49;44.08;101994.41;4950118;29;1220;-46
2024/02/19 06:39:08;;;;;;;;;;;;;;;15.33;44.48;101987.16;4952674;29;1039;-47
2024/02/19 06:41:34;;;;;;;;;;;;;;;15.86;43.59;101983.78;4956501;29;896;-47
2024/02/19 06:44:00;;;;;;;;;;;;;;;17.14;41.07;101982.50;4957014;28;1055;-47
2024/02/19 06:46:25;;;;;;;;;;;;;;;16.68;41.61;101986.69;4958346;29;1125;-48
2024/02/19 06:48:51;;;;;;;;;;;;;;;16.02;43.04;101975.91;4958023;29;1910;-51
2024/02/19 06:51:17;;;;;;;;;;;;;;;15.71;43.74;101983.59;4958705;29;1177;-45
2024/02/19 06:53:42;;;;;;;;;;;;;;;15.48;44.30;101979.44;4945520;29;1125;-47
2024/02/19 06:56:08;;;;;;;;;;;;;;;15.33;44.41;101976.56;4939354;29;1046;-46
2024/02/19 06:58:34;;;;;;;;;;;;;;;16.22;42.95;101987.31;4930274;29;1109;-49
2024/02/19 07:00:59;;;;;;;;;;;;;;;17.32;40.37;101985.91;4934894;29;1049;-42
2024/02/19 07:03:25;;;;;;;;;;;;;;;16.43;42.18;101989.78;4939290;29;986;-48
2024/02/19 07:05:51;;;;;;;;;;;;;;;15.91;43.27;101987.06;4939288;29;2594;-46
2024/02/19 07:08:16;;;;;;;;;;;;;;;15.63;44.07;101988.44;4939186;29;1911;-47
2024/02/19 07:10:42;;;;;;;;;;;;;;;15.41;44.55;101992.97;4939040;29;1042;-48
2024/02/19 07:13:07;;;;;;;;;;;;;;;15.27;44.65;101996.28;4934226;29;1409;-45
2024/02/19 07:15:33;;;;;;;;;;;;;;;16.37;42.36;101999.78;4939112;29;1116;-48
2024/02/19 07:17:58;;;;;;;;;;;;;;;17.38;40.07;101996.19;4938548;29;1176;-45
2024/02/19 07:20:24;;;;;;;;;;;;;;;16.48;42.00;101991.25;4939167;29;1330;-46
2024/02/19 07:22:50;;;;;;;;;;;;;;;16.01;42.87;101993.66;4938896;29;1422;-44
2024/02/19 07:25:15;;;;;;;;;;;;;;;15.69;43.97;101997.88;4939098;29;875;-48
2024/02/19 07:27:41;;;;;;;;;;;;;;;15.47;44.40;102001.56;4939003;29;1037;-46
2024/02/19 07:30:09;;;;;;;;;;;;;;;15.30;44.77;102003.22;4932976;29;1931;-45
2024/02/19 07:32:34;;;;;;;;;;;;;;;16.49;42.31;102000.09;4931221;29;975;-45
2024/02/19 07:35:00;;;;;;;;;;;;;;;17.38;40.08;102001.53;4935237;29;2456;-45
2024/02/19 07:37:25;;;;;;;;;;;;;;;16.36;42.04;102000.75;4942825;29;1136;-49
2024/02/19 07:39:52;;;;;;;;;;;;;;;15.90;43.28;102006.56;4942101;29;1177;-50
2024/02/19 07:42:17;;;;;;;;;;;;;;;15.61;43.73;102000.91;4932045;29;987;-47
2024/02/19 07:44:44;;;;;;;;;;;;;;;15.45;44.11;102000.81;4942892;29;1207;-46
2024/02/19 07:47:09;;;;;;;;;;;;;;;15.31;44.44;101999.66;4942429;29;1323;-49
2024/02/19 07:49:35;;;;;;;;;;;;;;;16.60;41.98;101989.75;4947976;29;1973;-49
2024/02/19 07:52:01;;;;;;;;;;;;;;;17.33;40.07;101995.59;4938138;29;1073;-45
2024/02/19 07:54:26;;;;;;;;;;;;;;;16.33;41.98;101992.91;4949030;29;1561;-44
2024/02/19 07:56:52;;;;;;;;;;;;;;;15.92;42.93;101994.06;4956577;29;1647;-45
2024/02/19 07:59:19;;;;;;;;;;;;;;;15.70;43.74;101994.31;4957261;29;1220;-45
2024/02/19 08:01:45;;;;;;;;;;;;;;;15.45;44.16;101992.84;4954368;29;1508;-47
2024/02/19 08:04:10;;;;;;;;;;;;;;;15.19;44.35;101993.16;4961316;29;2641;-48
2024/02/19 08:06:36;;;;;;;;;;;;;;;16.52;41.90;101986.66;4952355;29;1094;-43
2024/02/19 08:09:04;;;;;;;;;;;;;;;17.38;39.88;101987.38;4961823;28;1955;-46
2024/02/19 08:11:30;;;;;;;;;;;;;;;16.44;41.79;101975.56;4961481;29;1173;-46
2024/02/19 08:13:56;;;;;;;;;;;;;;;15.89;43.09;101979.19;4961590;29;1070;-48
2024/02/19 08:16:21;;;;;;;;;;;;;;;15.66;43.73;101977.66;4959255;29;1131;-48
2024/02/19 08:18:47;;;;;;;;;;;;;;;15.41;43.92;101977.06;4953164;29;1140;-48
2024/02/19 08:21:13;;;;;;;;;;;;;;;16.48;41.83;101972.66;4960976;29;1108;-48
2024/02/19 08:23:38;;;;;;;;;;;;;;;17.28;40.00;101971.09;4959749;29;1449;-48
2024/02/19 08:26:04;;;;;;;;;;;;;;;16.35;42.05;101971.63;4953696;29;1274;-48
2024/02/19 08:28:29;;;;;;;;;;;;;;;15.83;43.33;101966.19;4954984;29;1973;-48
2024/02/19 08:30:55;;;;;;;;;;;;;;;15.65;43.70;101962.66;4952987;29;1424;-57
2024/02/19 08:33:21;;;;;;;;;;;;;;;15.40;43.88;101950.59;4957691;29;1344;-47
2024/02/19 08:35:46;;;;;;;;;;;;;;;15.43;44.48;101959.28;4954676;29;2396;-51
2024/02/19 08:38:12;;;;;;;;;;;;;;;16.91;40.87;101952.69;4958260;29;1279;-56
2024/02/19 08:40:38;;;;;;;;;;;;;;;17.17;40.25;101953.06;4939793;29;1245;-53
2024/02/19 08:43:04;;;;;;;;;;;;;;;16.33;41.89;101945.13;4958493;29;1350;-50
2024/02/19 08:45:30;;;;;;;;;;;;;;;15.93;43.05;101942.72;4959743;29;1315;-55
2024/02/19 08:47:56;;;;;;;;;;;;;;;15.67;43.74;101947.53;4959744;29;1948;-50
2024/02/19 08:50:21;;;;;;;;;;;;;;;15.42;43.99;101943.44;4959314;29;1256;-56
2024/02/19 08:52:47;;;;;;;;;;;;;;;15.32;44.59;101940.38;4958904;29;1303;-46
2024/02/19 08:55:12;;;;;;;;;;;;;;;16.75;41.18;101940.25;4960243;29;1377;-51
2024/02/19 08:57:38;;;;;;;;;;;;;;;17.20;40.06;101938.75;4959835;29;1334;-47
2024/02/19 09:00:04;;;;;;;;;;;;;;;16.33;42.20;101938.97;4960016;29;1402;-50
2024/02/19 09:02:30;;;;;;;;;;;;;;;15.87;43.04;101941.25;4959620;29;1240;-49
2024/02/19 09:04:55;;;;;;;;;;;;;;;15.67;43.21;101942.25;4959233;29;2101;-46
2024/02/19 09:07:21;;;;;;;;;;;;;;;15.50;44.10;101945.72;4959932;29;1272;-45
2024/02/19 09:09:47;;;;;;;;;;;;;;;15.27;44.28;101947.69;4960478;29;1980;-43
2024/02/19 09:12:12;;;;;;;;;;;;;;;16.68;41.63;101935.34;4960190;29;1105;-44
2024/02/19 09:14:38;;;;;;;;;;;;;;;17.41;39.66;101947.31;4960074;29;1034;-49
2024/02/19 09:17:04;;;;;;;;;;;;;;;16.43;41.95;101947.31;4957018;29;1085;-47
2024/02/19 09:19:33;;;;;;;;;;;;;;;15.96;43.11;101939.03;4955238;29;1466;-48
2024/02/19 09:21:59;;;;;;;;;;;;;;;15.67;43.46;101936.94;4958410;29;1134;-51
2024/02/19 09:24:25;;;;;;;;;;;;;;;15.49;43.75;101944.88;4951040;29;1422;-49
2024/02/19 09:26:52;;;;;;;;;;;;;;;15.28;44.25;101944.97;4949577;29;995;-49
2024/02/19 09:29:17;;;;;;;;;;;;;;;16.28;42.62;101932.09;4958735;29;1915;-45
2024/02/19 09:31:43;;;;;;;;;;;;;;;17.26;39.92;101938.41;4959440;29;1045;-44
2024/02/19 09:34:09;;;;;;;;;;;;;;;16.30;42.30;101937.31;4958827;28;2504;-45
2024/02/19 09:36:34;;;;;;;;;;;;;;;15.89;43.08;101936.72;4959519;29;1096;-48
2024/02/19 09:39:00;;;;;;;;;;;;;;;15.60;43.58;101936.38;4959703;29;1062;-51
2024/02/19 09:41:26;;;;;;;;;;;;;;;15.42;43.91;101933.72;4959471;29;1018;-50
2024/02/19 09:43:51;;;;;;;;;;;;;;;15.95;42.98;101924.06;4959466;29;1041;-51
2024/02/19 09:46:22;;;;;;;;;;;;;;;17.22;40.32;101928.88;4960129;29;1153;-45
2024/02/19 09:48:49;;;;;;;;;;;;;;;16.72;41.10;101928.91;4942934;29;1973;-49
2024/02/19 09:51:21;;;;;;;;;;;;;;;16.09;42.78;101910.09;4959803;29;1110;-48
2024/02/19 09:53:51;;;;;;;;;;;;;;;15.74;43.30;101916.25;4958296;28;1586;-46
2024/02/19 09:56:19;;;;;;;;;;;;;;;15.59;43.83;101912.59;4959590;29;1137;-50
2024/02/19 09:58:45;;;;;;;;;;;;;;;15.39;43.95;101907.34;4959276;29;1347;-49
2024/02/19 10:01:11;;;;;;;;;;;;;;;15.33;44.55;101899.66;4955909;29;1334;-46
2024/02/19 10:03:36;;;;;;;;;;;;;;;16.79;41.25;101905.53;4953495;29;1426;-47
2024/02/19 10:06:02;;;;;;;;;;;;;;;17.23;40.13;101896.88;4954899;29;1240;-49
2024/02/19 10:08:28;;;;;;;;;;;;;;;16.27;41.91;101893.22;4942204;29;1909;-46
2024/02/19 10:10:54;;;;;;;;;;;;;;;15.82;43.24;101894.63;4955961;29;1065;-47
2024/02/19 10:13:20;;;;;;;;;;;;;;;15.60;43.44;101888.63;4959876;29;1065;-50
2024/02/19 10:15:46;;;;;;;;;;;;;;;15.43;44.16;101898.28;4958686;29;1120;-48
2024/02/19 10:18:15;;;;;;;;;;;;;;;15.23;44.52;101895.78;4951605;29;1110;-46
2024/02/19 10:20:42;;;;;;;;;;;;;;;15.78;43.71;101889.47;4954656;29;951;-45
2024/02/19 10:23:08;;;;;;;;;;;;;;;17.09;40.79;101891.50;4942378;29;889;-46
2024/02/19 10:25:33;;;;;;;;;;;;;;;16.87;40.70;101882.91;4958468;29;1113;-46
2024/02/19 10:27:59;;;;;;;;;;;;;;;16.07;42.42;101874.81;4945911;29;1985;-47
2024/02/19 10:30:25;;;;;;;;;;;;;;;15.74;43.33;101873.81;4958483;29;894;-48
2024/02/19 10:32:52;;;;;;;;;;;;;;;15.53;43.90;101860.72;4958937;29;1221;-45
2024/02/19 10:35:17;;;;;;;;;;;;;;;15.40;43.94;101868.41;4958855;29;1061;-48
2024/02/19 10:37:43;;;;;;;;;;;;;;;15.63;43.60;101858.47;4959278;29;1026;-48
2024/02/19 10:40:08;;;;;;;;;;;;;;;17.02;40.76;101859.91;4958999;29;1065;-47
2024/02/19 10:42:36;;;;;;;;;;;;;;;16.72;41.03;101851.84;4958198;29;1090;-49
2024/02/19 10:45:01;;;;;;;;;;;;;;;15.96;42.48;101854.13;4958297;29;1343;-54
2024/02/19 10:47:27;;;;;;;;;;;;;;;15.69;43.08;101851.97;4915951;29;1146;-55
2024/02/19 10:49:56;;;;;;;;;;;;;;;15.47;43.97;101851.28;4951045;29;1996;-52
2024/02/19 10:52:24;;;;;;;;;;;;;;;15.28;43.81;101851.34;4951006;29;1156;-48
2024/02/19 10:54:52;;;;;;;;;;;;;;;15.93;42.80;101846.31;4951561;29;1218;-52
2024/02/19 10:57:20;;;;;;;;;;;;;;;17.13;40.43;101847.84;4958123;29;1065;-48
2024/02/19 10:59:45;;;;;;;;;;;;;;;16.60;41.22;101842.81;4958315;29;1205;-47
2024/02/19 11:02:18;;;;;;;;;;;;;;;16.05;42.39;101843.03;4958498;29;1358;-56
2024/02/19 11:04:48;;;;;;;;;;;;;;;15.70;43.52;101837.78;4941381;29;1127;-49
2024/02/19 11:07:14;;;;;;;;;;;;;;;15.40;43.80;101834.81;4957615;29;931;-57
2024/02/19 11:09:39;;;;;;;;;;;;;;;15.33;43.89;101824.59;4940738;29;1906;-54
2024/02/19 11:12:05;;;;;;;;;;;;;;;16.43;41.95;101833.09;4941038;29;1550;-51
2024/02/19 11:14:32;;;;;;;;;;;;;;;17.31;39.93;101831.75;4956889;29;1446;-51
2024/02/19 11:16:59;;;;;;;;;;;;;;;16.37;41.89;101832.50;4957613;29;1143;-51
2024/02/19 11:19:25;;;;;;;;;;;;;;;15.85;42.46;101822.84;4952182;28;847;-56
2024/02/19 11:22:00;;;;;;;;;;;;;;;15.63;43.05;101824.81;4941127;29;1081;-55
2024/02/19 11:24:29;;;;;;;;;;;;;;;15.43;43.75;101813.44;4947722;29;1200;-46
2024/02/19 11:26:54;;;;;;;;;;;;;;;15.49;43.62;101817.59;4956021;29;1066;-50
2024/02/19 11:29:20;;;;;;;;;;;;;;;16.92;40.49;101813.53;4940517;29;1906;-50
2024/02/19 11:31:46;;;;;;;;;;;;;;;17.02;40.10;101809.41;4956339;28;1094;-47
2024/02/19 11:34:18;;;;;;;;;;;;;;;16.18;42.15;101808.75;4956665;29;1244;-47
2024/02/19 11:36:44;;;;;;;;;;;;;;;15.79;43.25;101800.16;4957262;29;1385;-54
2024/02/19 11:39:09;;;;;;;;;;;;;;;15.54;43.70;101798.78;4957991;29;1073;-51
2024/02/19 11:41:36;;;;;;;;;;;;;;;15.37;43.69;101797.84;4955967;29;1140;-51
2024/02/19 11:44:01;;;;;;;;;;;;;;;15.55;43.78;101797.81;4946950;29;846;-53
2024/02/19 11:46:28;;;;;;;;;;;;;;;16.98;40.78;101793.72;4956370;29;1022;-54
2024/02/19 11:48:54;;;;;;;;;;;;;;;16.70;40.68;101788.19;4954904;29;1971;-58
2024/02/19 11:51:20;;;;;;;;;;;;;;;16.09;42.16;101794.16;4943017;29;1165;-59
2024/02/19 11:53:47;;;;;;;;;;;;;;;15.14;42.83;101682.41;4940169;29;1126;-58
2024/02/19 11:56:17;;;;;;;;;;;;;;;15.57;43.39;101787.13;4950790;28;871;-58
2024/02/19 11:58:43;;;;;;;;;;;;;;;15.36;43.66;101784.69;4948063;29;1187;-58
2024/02/19 12:01:09;;;;;;;;;;;;;;;16.32;41.87;101784.09;4957074;29;1185;-58
2024/02/19 12:03:38;;;;;;;;;;;;;;;17.40;39.46;101785.97;4956312;29;1131;-58
2024/02/19 12:06:04;;;;;;;;;;;;;;;16.49;41.37;101787.59;4956914;29;1216;-58
2024/02/19 12:08:30;;;;;;;;;;;;;;;16.05;42.13;101789.97;4957187;29;1899;-58
2024/02/19 12:10:58;;;;;;;;;;;;;;;15.73;43.13;101779.25;4952538;29;1166;-60
2024/02/19 12:13:24;;;;;;;;;;;;;;;15.50;43.32;101786.59;4949089;29;1083;-55
2024/02/19 12:15:50;;;;;;;;;;;;;;;15.32;43.99;101777.78;4957643;28;1386;-58
2024/02/19 12:18:16;;;;;;;;;;;;;;;16.68;41.28;101784.78;4960097;29;1319;-52
2024/02/19 12:20:41;;;;;;;;;;;;;;;17.49;39.22;101784.56;4960455;29;1113;-55
2024/02/19 12:23:07;;;;;;;;;;;;;;;16.56;41.01;101780.16;4960480;29;1362;-55
2024/02/19 12:25:33;;;;;;;;;;;;;;;16.03;42.45;101774.13;4960518;29;1097;-51
2024/02/19 12:27:58;;;;;;;;;;;;;;;15.73;42.85;101772.13;4960877;29;1414;-56
2024/02/19 12:30:24;;;;;;;;;;;;;;;15.56;43.19;101778.34;4960085;29;1906;-50
2024/02/19 12:32:52;;;;;;;;;;;;;;;15.36;43.99;101777.59;4961405;29;1081;-54
2024/02/19 12:35:19;;;;;;;;;;;;;;;16.46;41.50;101780.66;4957430;29;1057;-52
2024/02/19 12:37:45;;;;;;;;;;;;;;;17.38;39.68;101782.56;4958643;29;1317;-55
2024/02/19 12:40:13;;;;;;;;;;;;;;;16.40;41.34;101778.34;4960744;29;997;-58